createdAt,value
2016-08-13T00:00:16.214Z,18.65
2016-08-13T00:01:16.239Z,18.72
2016-08-13T00:02:16.270Z,18.7
2016-08-13T00:03:31.222Z,18.73
2016-08-13T00:04:16.318Z,18.76
2016-08-13T00:06:31.294Z,18.65
2016-08-13T00:07:31.321Z,18.62
2016-08-13T00:08:16.422Z,18.67
2016-08-13T00:09:16.448Z,18.62
2016-08-13T00:10:31.397Z,18.65
2016-08-13T00:11:16.500Z,18.7
2016-08-13T00:12:31.447Z,18.7
2016-08-13T00:13:16.561Z,18.75
2016-08-13T00:14:16.578Z,18.75
2016-08-13T00:15:16.612Z,18.73
2016-08-13T00:16:16.638Z,18.7
2016-08-13T00:17:16.673Z,18.7
2016-08-13T00:18:16.694Z,18.75
2016-08-13T00:19:16.711Z,18.75
2016-08-13T00:20:16.734Z,18.75
2016-08-13T00:21:16.763Z,18.67
2016-08-13T00:22:16.797Z,18.72
2016-08-13T00:23:16.822Z,18.7
2016-08-13T00:24:16.844Z,18.65
2016-08-13T00:25:17.563Z,18.67
2016-08-13T00:26:31.815Z,18.57
2016-08-13T00:27:16.940Z,18.65
2016-08-13T00:28:16.945Z,18.55
2016-08-13T00:30:17.008Z,18.69
2016-08-13T00:31:17.018Z,18.73
2016-08-13T00:32:17.059Z,18.76
2016-08-13T00:33:17.091Z,18.72
2016-08-13T00:34:17.106Z,18.69
2016-08-13T00:35:17.131Z,18.72
2016-08-13T00:36:17.160Z,18.72
2016-08-13T00:37:17.194Z,18.75
2016-08-13T00:38:17.263Z,18.67
2016-08-13T00:39:17.234Z,18.72
2016-08-13T00:40:17.259Z,18.69
2016-08-13T00:41:17.280Z,18.72
2016-08-13T00:42:32.235Z,18.65
2016-08-13T00:43:17.341Z,18.63
2016-08-13T00:44:17.366Z,18.6
2016-08-13T00:45:17.395Z,18.62
2016-08-13T00:46:17.415Z,18.62
2016-08-13T00:48:17.477Z,18.58
2016-08-13T00:49:17.499Z,18.6
2016-08-13T00:50:17.528Z,18.58
2016-08-13T00:51:17.559Z,18.51
2016-08-13T00:52:17.572Z,18.5
2016-08-13T00:53:17.606Z,18.47
2016-08-13T00:54:17.630Z,18.44
2016-08-13T00:55:17.659Z,18.35
2016-08-13T00:56:17.685Z,18.39
2016-08-13T00:57:32.633Z,18.36
2016-08-13T00:58:17.742Z,18.44
2016-08-13T00:59:17.769Z,18.55
2016-08-13T01:00:17.791Z,18.36
2016-08-13T01:01:17.811Z,18.51
2016-08-13T01:02:17.840Z,18.52
2016-08-13T01:03:17.866Z,18.52
2016-08-13T01:04:17.890Z,18.48
2016-08-13T01:05:17.924Z,18.52
2016-08-13T01:06:17.945Z,18.6
2016-08-13T01:07:32.901Z,18.58
2016-08-13T01:08:17.995Z,18.63
2016-08-13T01:09:18.035Z,18.62
2016-08-13T01:11:18.089Z,18.7
2016-08-13T01:12:18.108Z,18.65
2016-08-13T01:13:18.130Z,18.62
2016-08-13T01:14:18.163Z,18.75
2016-08-13T01:15:18.183Z,18.7
2016-08-13T01:16:18.206Z,18.55
2016-08-13T01:17:18.233Z,18.67
2016-08-13T01:18:18.265Z,18.7
2016-08-13T01:19:18.290Z,18.67
2016-08-13T01:20:18.315Z,18.58
2016-08-13T01:21:18.339Z,18.58
2016-08-13T01:22:18.368Z,18.55
2016-08-13T01:23:18.403Z,18.65
2016-08-13T01:24:18.426Z,18.6
2016-08-13T01:25:18.451Z,18.6
2016-08-13T01:26:18.466Z,18.62
2016-08-13T01:27:18.501Z,18.6
2016-08-13T01:28:18.581Z,18.63
2016-08-13T01:29:33.572Z,18.55
2016-08-13T01:30:18.590Z,18.52
2016-08-13T01:31:18.606Z,18.55
2016-08-13T01:32:18.628Z,18.57
2016-08-13T01:34:18.684Z,18.57
2016-08-13T01:35:18.708Z,18.58
2016-08-13T01:36:18.741Z,18.58
2016-08-13T01:37:18.763Z,18.55
2016-08-13T01:38:18.794Z,18.65
2016-08-13T01:39:18.816Z,18.58
2016-08-13T01:40:18.837Z,18.5
2016-08-13T01:42:18.889Z,18.58
2016-08-13T01:43:18.927Z,18.58
2016-08-13T01:44:18.947Z,18.57
2016-08-13T01:45:33.908Z,18.5
2016-08-13T01:46:19.005Z,18.63
2016-08-13T01:47:19.027Z,18.54
2016-08-13T01:48:19.068Z,18.6
2016-08-13T01:49:19.074Z,18.62
2016-08-13T01:50:19.102Z,18.5
2016-08-13T01:51:19.131Z,18.47
2016-08-13T01:52:19.861Z,18.47
2016-08-13T01:53:19.178Z,18.42
2016-08-13T01:54:19.208Z,18.48
2016-08-13T01:55:19.238Z,18.35
2016-08-13T01:56:19.262Z,18.42
2016-08-13T01:57:19.285Z,18.36
2016-08-13T01:58:19.365Z,18.37
2016-08-13T01:59:19.337Z,18.37
2016-08-13T02:00:19.366Z,18.39
2016-08-13T02:01:34.318Z,18.42
2016-08-13T02:02:34.337Z,18.5
2016-08-13T02:03:20.134Z,18.37
2016-08-13T02:04:19.471Z,18.47
2016-08-13T02:05:19.497Z,18.36
2016-08-13T02:06:19.519Z,18.44
2016-08-13T02:07:19.547Z,18.41
2016-08-13T02:08:19.573Z,18.37
2016-08-13T02:09:19.604Z,18.37
2016-08-13T02:10:19.637Z,18.5
2016-08-13T02:11:19.648Z,18.44
2016-08-13T02:13:19.699Z,18.47
2016-08-13T02:14:19.726Z,18.42
2016-08-13T02:15:19.754Z,18.51
2016-08-13T02:16:19.784Z,18.51
2016-08-13T02:17:34.745Z,18.51
2016-08-13T02:19:19.864Z,18.51
2016-08-13T02:20:19.886Z,18.5
2016-08-13T02:21:19.909Z,18.47
2016-08-13T02:22:19.942Z,18.45
2016-08-13T02:23:19.974Z,18.48
2016-08-13T02:24:19.994Z,18.48
2016-08-13T02:25:20.012Z,18.45
2016-08-13T02:26:20.046Z,18.47
2016-08-13T02:27:20.067Z,18.51
2016-08-13T02:28:20.095Z,18.5
2016-08-13T02:29:35.098Z,18.48
2016-08-13T02:30:35.074Z,18.52
2016-08-13T02:31:20.874Z,18.57
2016-08-13T02:32:35.129Z,18.51
2016-08-13T02:33:35.148Z,18.54
2016-08-13T02:34:20.262Z,18.48
2016-08-13T02:35:20.286Z,18.57
2016-08-13T02:36:20.309Z,18.58
2016-08-13T02:37:35.284Z,18.57
2016-08-13T02:38:20.362Z,18.62
2016-08-13T02:39:20.386Z,18.48
2016-08-13T02:40:20.410Z,18.51
2016-08-13T02:41:20.437Z,18.58
2016-08-13T02:42:20.476Z,18.57
2016-08-13T02:43:20.493Z,18.58
2016-08-13T02:44:35.443Z,18.47
2016-08-13T02:45:20.558Z,18.51
2016-08-13T02:46:20.566Z,18.48
2016-08-13T02:47:20.596Z,18.5
2016-08-13T02:48:35.543Z,18.5
2016-08-13T02:49:20.663Z,18.5
2016-08-13T02:50:20.675Z,18.51
2016-08-13T02:51:20.702Z,18.52
2016-08-13T02:52:20.721Z,18.45
2016-08-13T02:53:20.754Z,18.57
2016-08-13T02:54:20.776Z,18.54
2016-08-13T02:55:20.809Z,18.54
2016-08-13T02:56:20.834Z,18.51
2016-08-13T02:57:20.861Z,18.6
2016-08-13T02:59:20.904Z,18.51
2016-08-13T03:00:20.934Z,18.54
2016-08-13T03:01:20.976Z,18.55
2016-08-13T03:02:20.991Z,18.48
2016-08-13T03:03:35.939Z,18.47
2016-08-13T03:04:35.962Z,18.54
2016-08-13T03:05:21.065Z,18.52
2016-08-13T03:06:21.096Z,18.58
2016-08-13T03:07:21.119Z,18.57
2016-08-13T03:08:21.148Z,18.48
2016-08-13T03:09:21.188Z,18.48
2016-08-13T03:10:21.196Z,18.48
2016-08-13T03:11:21.230Z,18.5
2016-08-13T03:12:21.256Z,18.48
2016-08-13T03:13:21.283Z,18.54
2016-08-13T03:14:21.305Z,18.5
2016-08-13T03:15:21.324Z,18.42
2016-08-13T03:16:21.364Z,18.35
2016-08-13T03:17:21.383Z,18.39
2016-08-13T03:18:21.410Z,18.44
2016-08-13T03:19:21.448Z,18.39
2016-08-13T03:20:36.381Z,18.33
2016-08-13T03:21:21.502Z,18.26
2016-08-13T03:22:36.431Z,18.17
2016-08-13T03:23:21.544Z,18.25
2016-08-13T03:24:21.562Z,18.25
2016-08-13T03:25:21.594Z,18.18
2016-08-13T03:26:21.621Z,18.23
2016-08-13T03:27:21.647Z,18.25
2016-08-13T03:29:21.690Z,18.32
2016-08-13T03:30:21.767Z,18.32
2016-08-13T03:31:22.450Z,18.29
2016-08-13T03:32:21.768Z,18.29
2016-08-13T03:33:21.796Z,18.29
2016-08-13T03:34:21.838Z,18.32
2016-08-13T03:35:21.900Z,18.33
2016-08-13T03:36:36.800Z,18.26
2016-08-13T03:37:21.907Z,18.47
2016-08-13T03:38:22.635Z,18.39
2016-08-13T03:39:21.955Z,18.3
2016-08-13T03:40:21.982Z,18.37
2016-08-13T03:41:22.008Z,18.37
2016-08-13T03:42:22.039Z,18.23
2016-08-13T03:43:22.067Z,18.27
2016-08-13T03:44:22.090Z,18.21
2016-08-13T03:46:22.140Z,18.11
2016-08-13T03:48:37.117Z,18.12
2016-08-13T03:49:37.145Z,18.12
2016-08-13T03:50:22.298Z,18.11
2016-08-13T03:51:22.266Z,18.2
2016-08-13T03:52:37.221Z,18.15
2016-08-13T03:53:22.318Z,18.21
2016-08-13T03:54:22.346Z,18.21
2016-08-13T03:55:22.377Z,18.23
2016-08-13T03:56:22.397Z,18.12
2016-08-13T03:57:22.426Z,18.1
2016-08-13T03:58:22.452Z,18.08
2016-08-13T03:59:22.486Z,18.12
2016-08-13T04:00:22.501Z,18.12
2016-08-13T04:01:23.222Z,18.07
2016-08-13T04:02:22.558Z,18.11
2016-08-13T04:03:22.589Z,18.11
2016-08-13T04:04:22.609Z,18.11
2016-08-13T04:05:22.641Z,18.11
2016-08-13T04:06:22.672Z,18.11
2016-08-13T04:07:37.616Z,18.14
2016-08-13T04:08:22.741Z,18.12
2016-08-13T04:09:22.751Z,18.2
2016-08-13T04:10:37.688Z,18.14
2016-08-13T04:11:22.797Z,18.18
2016-08-13T04:12:22.824Z,18.11
2016-08-13T04:13:22.848Z,18.17
2016-08-13T04:14:22.868Z,18.12
2016-08-13T04:15:22.895Z,18.05
2016-08-13T04:16:23.628Z,17.95
2016-08-13T04:17:22.949Z,18.07
2016-08-13T04:18:22.977Z,18
2016-08-13T04:19:23.005Z,18.02
2016-08-13T04:20:23.022Z,17.96
2016-08-13T04:21:23.055Z,18.14
2016-08-13T04:22:23.080Z,18.1
2016-08-13T04:23:23.106Z,18.14
2016-08-13T04:24:38.055Z,18.07
2016-08-13T04:25:23.152Z,18.18
2016-08-13T04:26:23.196Z,18.11
2016-08-13T04:27:23.207Z,18.14
2016-08-13T04:28:23.236Z,18.12
2016-08-13T04:29:23.265Z,18.26
2016-08-13T04:30:23.349Z,18.29
2016-08-13T04:31:23.315Z,18.29
2016-08-13T04:32:23.340Z,18.33
2016-08-13T04:36:23.463Z,18.39
2016-08-13T04:37:23.467Z,18.39
2016-08-13T04:39:38.451Z,18.35
2016-08-13T04:40:23.551Z,18.37
2016-08-13T04:41:23.575Z,18.39
2016-08-13T04:42:23.603Z,18.42
2016-08-13T04:43:23.627Z,18.44
2016-08-13T04:44:23.653Z,18.52
2016-08-13T04:45:23.689Z,18.51
2016-08-13T04:46:23.704Z,18.5
2016-08-13T04:47:23.734Z,18.51
2016-08-13T04:48:23.761Z,18.5
2016-08-13T04:50:23.815Z,18.57
2016-08-13T04:51:38.766Z,18.48
2016-08-13T04:52:23.868Z,18.6
2016-08-13T04:53:23.938Z,18.62
2016-08-13T04:54:23.927Z,18.69
2016-08-13T04:55:38.865Z,18.87
2016-08-13T04:56:23.975Z,18.99
2016-08-13T04:57:38.918Z,19.19
2016-08-13T04:58:24.022Z,19.39
2016-08-13T04:59:24.053Z,19.55
2016-08-13T05:00:24.074Z,19.73
2016-08-13T05:01:24.103Z,20.06
2016-08-13T05:02:24.130Z,20.33
2016-08-13T05:03:24.158Z,20.66
2016-08-13T05:04:24.176Z,20.95
2016-08-13T05:05:24.209Z,21.38
2016-08-13T05:06:24.237Z,21.46
2016-08-13T05:07:24.262Z,21.46
2016-08-13T05:08:39.220Z,21.83
2016-08-13T05:09:24.330Z,21.84
2016-08-13T05:10:24.348Z,21.98
2016-08-13T05:11:39.304Z,22.35
2016-08-13T05:12:39.328Z,22.58
2016-08-13T05:13:24.441Z,22.94
2016-08-13T05:14:25.160Z,23.07
2016-08-13T05:15:24.495Z,23.32
2016-08-13T05:16:24.529Z,23.58
2016-08-13T05:17:24.553Z,23.51
2016-08-13T05:18:24.583Z,23.54
2016-08-13T05:19:24.614Z,23.53
2016-08-13T05:20:24.645Z,23.35
2016-08-13T05:21:24.674Z,23.36
2016-08-13T05:22:24.708Z,23.02
2016-08-13T05:23:39.660Z,22.68
2016-08-13T05:24:24.760Z,22.46
2016-08-13T05:25:24.792Z,22.15
2016-08-13T05:26:24.825Z,21.99
2016-08-13T05:27:39.774Z,21.79
2016-08-13T05:28:24.881Z,21.75
2016-08-13T05:29:24.917Z,21.5
2016-08-13T05:31:25.018Z,21.4
2016-08-13T05:32:24.998Z,21.59
2016-08-13T05:33:25.024Z,22.07
2016-08-13T05:34:25.055Z,22.33
2016-08-13T05:35:25.094Z,22.31
2016-08-13T05:36:25.112Z,22.21
2016-08-13T05:37:25.204Z,21.99
2016-08-13T05:38:25.230Z,21.88
2016-08-13T05:39:25.205Z,21.98
2016-08-13T05:40:40.167Z,22.3
2016-08-13T05:41:25.272Z,22.72
2016-08-13T05:42:40.216Z,23.28
2016-08-13T05:43:25.328Z,23.83
2016-08-13T05:44:25.358Z,24.4
2016-08-13T05:45:25.404Z,24.71
2016-08-13T05:46:25.415Z,24.81
2016-08-13T05:47:25.444Z,25.2
2016-08-13T05:48:25.475Z,25.57
2016-08-13T05:49:25.502Z,26.02
2016-08-13T05:50:25.541Z,26.18
2016-08-13T05:52:40.533Z,26.45
2016-08-13T05:53:25.636Z,26.44
2016-08-13T05:54:25.671Z,26.63
2016-08-13T05:56:25.736Z,26.97
2016-08-13T05:57:25.761Z,27.19
2016-08-13T05:58:40.724Z,27.09
2016-08-13T05:59:25.829Z,27.17
2016-08-13T06:00:26.562Z,27.29
2016-08-13T06:01:25.915Z,27.47
2016-08-13T06:02:25.932Z,27.77
2016-08-13T06:03:25.969Z,27.62
2016-08-13T06:04:26.004Z,27.12
2016-08-13T06:05:26.041Z,26.73
2016-08-13T06:06:26.074Z,26.37
2016-08-13T06:07:26.109Z,26.2
2016-08-13T06:08:26.139Z,26.2
2016-08-13T06:10:26.207Z,26.77
2016-08-13T06:11:26.236Z,27.25
2016-08-13T06:13:26.309Z,27.75
2016-08-13T06:14:41.268Z,27.94
2016-08-13T06:15:26.375Z,28.17
2016-08-13T06:16:26.413Z,28.43
2016-08-13T06:17:26.449Z,28.34
2016-08-13T06:18:26.481Z,28.44
2016-08-13T06:19:26.518Z,28.51
2016-08-13T06:20:26.550Z,28.54
2016-08-13T06:21:26.587Z,28.56
2016-08-13T06:22:26.620Z,28.54
2016-08-13T06:23:26.663Z,28.81
2016-08-13T06:24:26.682Z,28.76
2016-08-13T06:26:26.763Z,29.14
2016-08-13T06:27:26.792Z,29.27
2016-08-13T06:28:26.837Z,29.12
2016-08-13T06:29:26.870Z,28.76
2016-08-13T06:30:41.827Z,28.83
2016-08-13T06:31:26.936Z,29.02
2016-08-13T06:32:26.972Z,29.15
2016-08-13T06:33:27.003Z,29.24
2016-08-13T06:34:27.042Z,28.77
2016-08-13T06:35:27.073Z,28.98
2016-08-13T06:36:27.109Z,29.34
2016-08-13T06:37:27.147Z,29.61
2016-08-13T06:38:27.182Z,29.94
2016-08-13T06:39:27.913Z,30.17
2016-08-13T06:41:27.289Z,30.13
2016-08-13T06:42:27.329Z,29.97
2016-08-13T06:43:27.363Z,30.13
2016-08-13T06:44:27.407Z,30.1
2016-08-13T06:45:27.431Z,30.26
2016-08-13T06:46:42.395Z,30.6
2016-08-13T06:47:27.514Z,30.76
2016-08-13T06:48:27.535Z,30.64
2016-08-13T06:49:27.577Z,30.67
2016-08-13T06:50:27.610Z,30.69
2016-08-13T06:51:27.645Z,30.95
2016-08-13T06:52:27.700Z,30.84
2016-08-13T06:53:27.717Z,31.31
2016-08-13T06:54:27.758Z,31.5
2016-08-13T06:55:27.789Z,31.47
2016-08-13T06:57:27.917Z,31.28
2016-08-13T06:58:27.900Z,31.44
2016-08-13T06:59:27.944Z,31.39
2016-08-13T07:00:27.969Z,31.65
2016-08-13T07:01:28.008Z,31.46
2016-08-13T07:02:42.972Z,30.77
2016-08-13T07:03:43.009Z,31.2
2016-08-13T07:04:28.118Z,31.36
2016-08-13T07:05:28.161Z,31.14
2016-08-13T07:06:28.192Z,31.41
2016-08-13T07:07:28.228Z,31.47
2016-08-13T07:08:28.269Z,31.65
2016-08-13T07:09:28.299Z,31.65
2016-08-13T07:10:28.343Z,31.99
2016-08-13T07:11:28.371Z,31.54
2016-08-13T07:12:28.413Z,31.66
2016-08-13T07:13:28.443Z,31.73
2016-08-13T07:14:28.483Z,31.48
2016-08-13T07:15:28.520Z,31.51
2016-08-13T07:17:43.523Z,32.07
2016-08-13T07:18:28.642Z,32.28
2016-08-13T07:19:28.678Z,32.26
2016-08-13T07:20:28.714Z,32.59
2016-08-13T07:21:28.746Z,32.55
2016-08-13T07:22:28.780Z,32.32
2016-08-13T07:23:28.824Z,32.18
2016-08-13T07:24:28.855Z,32.21
2016-08-13T07:25:28.892Z,32.04
2016-08-13T07:26:28.933Z,32.01
2016-08-13T07:27:28.963Z,32.07
2016-08-13T07:28:29.004Z,31.86
2016-08-13T07:29:43.965Z,31.96
2016-08-13T07:30:29.782Z,32.11
2016-08-13T07:31:29.804Z,32.03
2016-08-13T07:32:29.142Z,31.84
2016-08-13T07:33:29.187Z,31.95
2016-08-13T07:34:29.213Z,32.44
2016-08-13T07:35:29.260Z,32.79
2016-08-13T07:36:29.298Z,32.35
2016-08-13T07:37:29.335Z,32.32
2016-08-13T07:38:29.393Z,31.86
2016-08-13T07:39:29.406Z,32.1
2016-08-13T07:40:29.451Z,31.93
2016-08-13T07:41:30.181Z,32.07
2016-08-13T07:42:29.569Z,32.3
2016-08-13T07:43:29.554Z,32.08
2016-08-13T07:44:29.590Z,32.18
2016-08-13T07:46:44.591Z,32.19
2016-08-13T07:47:29.710Z,32.21
2016-08-13T07:48:44.666Z,32.47
2016-08-13T07:49:44.701Z,32.89
2016-08-13T07:50:44.783Z,33.14
2016-08-13T07:51:29.846Z,33.07
2016-08-13T07:52:29.896Z,32.82
2016-08-13T07:53:29.919Z,32.88
2016-08-13T07:54:29.957Z,32.74
2016-08-13T07:55:29.999Z,32.48
2016-08-13T07:56:30.030Z,32.23
2016-08-13T07:57:30.067Z,32.59
2016-08-13T07:58:30.161Z,32.22
2016-08-13T07:59:30.144Z,32.55
2016-08-13T08:00:30.178Z,32.87
2016-08-13T08:01:30.220Z,32.81
2016-08-13T08:02:30.259Z,32.99
2016-08-13T08:03:30.288Z,32.45
2016-08-13T08:04:30.328Z,32.63
2016-08-13T08:05:45.292Z,32.78
2016-08-13T08:06:30.397Z,33.14
2016-08-13T08:07:30.437Z,32.89
2016-08-13T08:08:30.481Z,32.84
2016-08-13T08:09:30.527Z,32.82
2016-08-13T08:10:30.549Z,32.74
2016-08-13T08:11:30.582Z,32.33
2016-08-13T08:12:30.623Z,32.59
2016-08-13T08:13:30.660Z,32.72
2016-08-13T08:14:30.691Z,32.65
2016-08-13T08:15:30.734Z,32.47
2016-08-13T08:16:30.768Z,32.37
2016-08-13T08:17:30.808Z,32.01
2016-08-13T08:19:30.873Z,31.95
2016-08-13T08:20:30.934Z,32
2016-08-13T08:21:45.869Z,30.72
2016-08-13T08:22:30.988Z,30.38
2016-08-13T08:23:31.019Z,30.08
2016-08-13T08:24:31.062Z,30.43
2016-08-13T08:25:31.095Z,30.1
2016-08-13T08:26:31.833Z,29.94
2016-08-13T08:27:31.179Z,29.64
2016-08-13T08:28:31.203Z,29.67
2016-08-13T08:29:31.240Z,30.01
2016-08-13T08:30:31.280Z,30.69
2016-08-13T08:31:31.299Z,31.26
2016-08-13T08:32:31.345Z,31.48
2016-08-13T08:33:31.370Z,30.92
2016-08-13T08:35:31.450Z,31.09
2016-08-13T08:36:31.483Z,31.34
2016-08-13T08:37:46.441Z,31.53
2016-08-13T08:38:31.551Z,31.96
2016-08-13T08:39:31.588Z,32.19
2016-08-13T08:40:31.620Z,31.99
2016-08-13T08:41:31.658Z,31.48
2016-08-13T08:42:31.736Z,31.44
2016-08-13T08:43:31.771Z,31.51
2016-08-13T08:44:31.758Z,31.51
2016-08-13T08:45:31.791Z,31.46
2016-08-13T08:46:31.829Z,31.13
2016-08-13T08:47:31.865Z,31.28
2016-08-13T08:48:31.913Z,31.28
2016-08-13T08:49:46.863Z,30.86
2016-08-13T08:50:46.951Z,30.46
2016-08-13T08:51:32.012Z,30.58
2016-08-13T08:52:46.976Z,30.17
2016-08-13T08:53:32.070Z,30
2016-08-13T08:54:32.125Z,29.85
2016-08-13T08:55:32.144Z,30.35
2016-08-13T08:56:32.195Z,30.8
2016-08-13T08:57:32.214Z,31.19
2016-08-13T08:58:32.245Z,31.38
2016-08-13T08:59:32.282Z,30.91
2016-08-13T09:00:32.316Z,30.26
2016-08-13T09:01:32.354Z,29.86
2016-08-13T09:02:32.387Z,29.74
2016-08-13T09:03:32.481Z,29.64
2016-08-13T09:04:32.452Z,29.65
2016-08-13T09:05:32.489Z,30.04
2016-08-13T09:06:32.521Z,30.34
2016-08-13T09:07:33.247Z,30.35
2016-08-13T09:08:32.591Z,30.58
2016-08-13T09:09:32.632Z,30.13
2016-08-13T09:10:32.659Z,29.57
2016-08-13T09:11:32.693Z,29.55
2016-08-13T09:12:32.729Z,30.29
2016-08-13T09:13:32.762Z,30.53
2016-08-13T09:14:32.799Z,30.79
2016-08-13T09:15:32.827Z,31.29
2016-08-13T09:16:32.866Z,31.85
2016-08-13T09:17:32.894Z,32.19
2016-08-13T09:18:32.930Z,32.62
2016-08-13T09:19:32.968Z,32.4
2016-08-13T09:20:33.006Z,32.66
2016-08-13T09:21:33.039Z,32.65
2016-08-13T09:22:33.071Z,32.29
2016-08-13T09:23:33.104Z,32
2016-08-13T09:24:48.073Z,31.61
2016-08-13T09:25:48.097Z,31.48
2016-08-13T09:26:33.232Z,31.61
2016-08-13T09:27:33.244Z,31.63
2016-08-13T09:28:33.283Z,31.62
2016-08-13T09:29:33.315Z,32.04
2016-08-13T09:30:33.345Z,31.75
2016-08-13T09:31:33.383Z,31.62
2016-08-13T09:32:33.415Z,31.38
2016-08-13T09:33:33.452Z,31.04
2016-08-13T09:34:33.483Z,30.94
2016-08-13T09:35:33.531Z,30.69
2016-08-13T09:36:33.557Z,30.27
2016-08-13T09:37:33.586Z,30.51
2016-08-13T09:38:33.624Z,30.79
2016-08-13T09:39:33.649Z,31.47
2016-08-13T09:40:48.612Z,32.03
2016-08-13T09:41:33.744Z,32.32
2016-08-13T09:42:33.752Z,32.25
2016-08-13T09:43:33.786Z,32.28
2016-08-13T09:44:33.823Z,32.01
2016-08-13T09:45:33.867Z,31.04
2016-08-13T09:46:33.895Z,30.46
2016-08-13T09:47:34.630Z,30.43
2016-08-13T09:48:33.962Z,30.15
2016-08-13T09:49:33.997Z,29.83
2016-08-13T09:50:48.960Z,29.64
2016-08-13T09:51:34.059Z,29.87
2016-08-13T09:52:34.098Z,30.07
2016-08-13T09:54:34.167Z,29.45
2016-08-13T09:55:34.205Z,29.49
2016-08-13T09:56:49.158Z,30.17
2016-08-13T09:57:34.271Z,30.27
2016-08-13T09:58:34.295Z,30.77
2016-08-13T09:59:34.333Z,31.26
2016-08-13T10:00:34.370Z,31.58
2016-08-13T10:01:34.400Z,31.54
2016-08-13T10:02:49.369Z,32.14
2016-08-13T10:03:34.466Z,32.29
2016-08-13T10:04:34.505Z,32.94
2016-08-13T10:05:34.534Z,33.15
2016-08-13T10:06:34.570Z,33.56
2016-08-13T10:07:34.609Z,32.99
2016-08-13T10:08:34.640Z,32.18
2016-08-13T10:09:49.622Z,31.89
2016-08-13T10:10:34.712Z,31.76
2016-08-13T10:11:34.735Z,31.93
2016-08-13T10:12:49.702Z,32.56
2016-08-13T10:13:34.812Z,32.93
2016-08-13T10:14:34.840Z,32.75
2016-08-13T10:15:34.870Z,32.81
2016-08-13T10:16:34.913Z,32.75
2016-08-13T10:17:34.944Z,32.67
2016-08-13T10:18:34.975Z,32.75
2016-08-13T10:19:35.017Z,32.77
2016-08-13T10:20:35.042Z,32.35
2016-08-13T10:21:35.079Z,32.44
2016-08-13T10:22:35.111Z,32.32
2016-08-13T10:23:35.144Z,32.35
2016-08-13T10:24:35.188Z,32.33
2016-08-13T10:25:35.219Z,32.23
2016-08-13T10:26:35.250Z,32.03
2016-08-13T10:27:50.207Z,32.01
2016-08-13T10:28:35.322Z,31.7
2016-08-13T10:29:50.275Z,31.58
2016-08-13T10:30:35.390Z,31.56
2016-08-13T10:31:35.417Z,31.53
2016-08-13T10:32:35.457Z,31.16
2016-08-13T10:33:35.487Z,30.73
2016-08-13T10:34:35.514Z,30.65
2016-08-13T10:35:35.556Z,30.83
2016-08-13T10:36:35.597Z,30.82
2016-08-13T10:37:35.623Z,30.37
2016-08-13T10:38:35.660Z,30.32
2016-08-13T10:39:35.684Z,30.39
2016-08-13T10:41:35.757Z,30.38
2016-08-13T10:42:35.797Z,30.31
2016-08-13T10:43:35.822Z,30.31
2016-08-13T10:44:35.858Z,29.76
2016-08-13T10:45:35.905Z,29.89
2016-08-13T10:47:35.958Z,29.45
2016-08-13T10:48:36.042Z,29.28
2016-08-13T10:49:36.033Z,29.31
2016-08-13T10:50:36.055Z,29.24
2016-08-13T10:51:36.095Z,29.11
2016-08-13T10:52:36.157Z,29.18
2016-08-13T10:53:36.162Z,29.08
2016-08-13T10:54:36.195Z,29.26
2016-08-13T10:55:51.153Z,29.33
2016-08-13T10:56:36.256Z,29.43
2016-08-13T10:57:36.299Z,29.15
2016-08-13T10:58:36.326Z,29.15
2016-08-13T10:59:51.332Z,29.3
2016-08-13T11:00:36.405Z,29.45
2016-08-13T11:01:36.430Z,29.63
2016-08-13T11:02:36.457Z,29.52
2016-08-13T11:03:36.487Z,29.6
2016-08-13T11:04:36.527Z,29.83
2016-08-13T11:05:36.556Z,29.89
2016-08-13T11:06:36.637Z,30.04
2016-08-13T11:07:36.627Z,30.08
2016-08-13T11:08:36.663Z,30.11
2016-08-13T11:09:36.685Z,29.94
2016-08-13T11:10:36.722Z,29.8
2016-08-13T11:11:36.753Z,29.86
2016-08-13T11:12:36.795Z,29.92
2016-08-13T11:13:36.816Z,29.94
2016-08-13T11:14:36.856Z,29.76
2016-08-13T11:15:51.816Z,29.73
2016-08-13T11:16:36.917Z,29.71
2016-08-13T11:17:37.099Z,29.63
2016-08-13T11:18:36.987Z,29.57
2016-08-13T11:19:37.016Z,29.55
2016-08-13T11:20:37.055Z,29.31
2016-08-13T11:21:37.088Z,29.18
2016-08-13T11:22:37.823Z,29.12
2016-08-13T11:23:37.158Z,29.05
2016-08-13T11:24:37.888Z,28.83
2016-08-13T11:25:37.219Z,28.89
2016-08-13T11:26:37.247Z,28.98
2016-08-13T11:27:37.279Z,28.96
2016-08-13T11:28:37.316Z,29.11
2016-08-13T11:29:37.346Z,29.21
2016-08-13T11:30:37.369Z,29.26
2016-08-13T11:31:52.340Z,29.28
2016-08-13T11:32:37.456Z,29.18
2016-08-13T11:33:37.472Z,29.24
2016-08-13T11:34:37.513Z,29.46
2016-08-13T11:35:37.540Z,29.52
2016-08-13T11:36:37.569Z,29.58
2016-08-13T11:37:37.616Z,29.52
2016-08-13T11:38:37.646Z,29.31
2016-08-13T11:39:37.663Z,29.26
2016-08-13T11:40:37.705Z,29.11
2016-08-13T11:42:38.464Z,29.27
2016-08-13T11:43:37.795Z,29.42
2016-08-13T11:45:37.879Z,29.51
2016-08-13T11:46:37.897Z,29.71
2016-08-13T11:47:52.852Z,29.8
2016-08-13T11:48:52.883Z,30.02
2016-08-13T11:49:37.998Z,30.05
2016-08-13T11:50:38.042Z,30.01
2016-08-13T11:51:38.060Z,29.85
2016-08-13T11:52:38.090Z,29.67
2016-08-13T11:53:38.124Z,29.48
2016-08-13T11:54:38.153Z,29.48
2016-08-13T11:55:38.189Z,29.27
2016-08-13T11:56:38.221Z,29
2016-08-13T11:57:38.251Z,29.04
2016-08-13T11:58:38.280Z,29.11
2016-08-13T11:59:38.317Z,29.09
2016-08-13T12:00:38.348Z,29.11
2016-08-13T12:01:38.376Z,28.96
2016-08-13T12:02:53.338Z,28.76
2016-08-13T12:03:38.451Z,28.85
2016-08-13T12:04:38.481Z,28.93
2016-08-13T12:05:38.519Z,28.95
2016-08-13T12:06:38.542Z,29.08
2016-08-13T12:08:38.610Z,29.26
2016-08-13T12:09:38.643Z,29.55
2016-08-13T12:10:38.668Z,29.76
2016-08-13T12:11:38.705Z,29.92
2016-08-13T12:12:38.774Z,29.89
2016-08-13T12:13:38.768Z,29.53
2016-08-13T12:14:53.732Z,29.57
2016-08-13T12:15:53.760Z,29.58
2016-08-13T12:16:38.858Z,29.64
2016-08-13T12:17:38.905Z,29.55
2016-08-13T12:18:38.927Z,29.51
2016-08-13T12:19:38.964Z,29.67
2016-08-13T12:20:39.005Z,29.58
2016-08-13T12:21:39.027Z,29.63
2016-08-13T12:22:39.059Z,29.71
2016-08-13T12:23:39.789Z,29.65
2016-08-13T12:24:39.129Z,29.64
2016-08-13T12:25:39.156Z,29.65
2016-08-13T12:26:39.188Z,29.63
2016-08-13T12:28:39.262Z,29.74
2016-08-13T12:29:39.288Z,29.85
2016-08-13T12:30:39.327Z,29.85
2016-08-13T12:31:39.348Z,30.04
2016-08-13T12:32:39.390Z,30.05
2016-08-13T12:33:54.341Z,30.22
2016-08-13T12:34:54.393Z,30.27
2016-08-13T12:35:39.483Z,30.26
2016-08-13T12:36:39.515Z,30.1
2016-08-13T12:37:39.547Z,29.9
2016-08-13T12:39:39.606Z,29.63
2016-08-13T12:40:39.639Z,29.57
2016-08-13T12:41:39.673Z,29.68
2016-08-13T12:42:39.705Z,29.67
2016-08-13T12:43:39.741Z,29.67
2016-08-13T12:44:39.772Z,29.63
2016-08-13T12:45:39.802Z,29.73
2016-08-13T12:46:39.830Z,29.74
2016-08-13T12:47:39.868Z,29.85
2016-08-13T12:48:39.899Z,30.02
2016-08-13T12:49:39.934Z,30.1
2016-08-13T12:50:54.889Z,30.13
2016-08-13T12:51:54.917Z,30.08
2016-08-13T12:52:54.950Z,30
2016-08-13T12:53:40.066Z,30.04
2016-08-13T12:54:40.103Z,30.04
2016-08-13T12:55:40.129Z,30.15
2016-08-13T12:56:40.156Z,30.2
2016-08-13T12:57:40.183Z,30.19
2016-08-13T12:58:40.229Z,30.22
2016-08-13T12:59:40.257Z,30.26
2016-08-13T13:00:40.339Z,30.45
2016-08-13T13:01:40.320Z,30.49
2016-08-13T13:02:40.346Z,30.58
2016-08-13T13:03:40.381Z,30.69
2016-08-13T13:04:40.420Z,30.73
2016-08-13T13:05:40.449Z,30.55
2016-08-13T13:06:55.403Z,30.32
2016-08-13T13:07:40.509Z,30.37
2016-08-13T13:08:40.553Z,30.37
2016-08-13T13:09:40.577Z,30.31
2016-08-13T13:10:40.607Z,30.27
2016-08-13T13:11:40.640Z,30.55
2016-08-13T13:12:40.678Z,30.49
2016-08-13T13:13:40.717Z,30.49
2016-08-13T13:14:40.737Z,30.55
2016-08-13T13:15:40.767Z,30.42
2016-08-13T13:16:40.811Z,30.22
2016-08-13T13:17:40.829Z,30.34
2016-08-13T13:18:55.794Z,30.37
2016-08-13T13:19:55.827Z,30.39
2016-08-13T13:20:55.860Z,30.49
2016-08-13T13:21:40.969Z,30.58
2016-08-13T13:22:55.920Z,30.62
2016-08-13T13:23:41.024Z,30.42
2016-08-13T13:24:41.064Z,30.45
2016-08-13T13:25:41.089Z,30.43
2016-08-13T13:26:41.121Z,30.31
2016-08-13T13:27:41.162Z,30.43
2016-08-13T13:28:41.192Z,30.29
2016-08-13T13:29:41.220Z,30.11
2016-08-13T13:30:41.259Z,30.16
2016-08-13T13:31:41.300Z,30.11
2016-08-13T13:32:41.325Z,30.01